createdAt,value
2023-04-20T00:04:15.733Z,7.76
2023-04-20T00:08:18.548Z,7.82
2023-04-20T00:12:54.662Z,7.78
2023-04-20T00:16:57.516Z,7.71
2023-04-20T00:21:00.264Z,7.69
2023-04-20T00:25:03.050Z,7.70
2023-04-20T00:29:37.657Z,7.66
2023-04-20T00:33:40.864Z,7.67
2023-04-20T00:37:43.767Z,7.64
2023-04-20T00:41:46.588Z,7.64
2023-04-20T00:46:39.545Z,7.64
2023-04-20T00:50:43.777Z,7.58
2023-04-20T00:55:41.369Z,7.57
2023-04-20T00:59:44.129Z,7.50
2023-04-20T01:03:47.243Z,7.48
2023-04-20T01:08:25.657Z,7.44
2023-04-20T01:12:29.786Z,7.39
2023-04-20T01:16:34.870Z,7.41
2023-04-20T01:20:37.764Z,7.41
2023-04-20T01:25:19.170Z,7.47
2023-04-20T01:29:22.082Z,7.56
2023-04-20T01:34:18.277Z,7.61
2023-04-20T01:38:22.231Z,7.70
2023-04-20T01:42:26.406Z,7.77
2023-04-20T01:46:29.622Z,7.80
2023-04-20T01:51:08.688Z,7.77
2023-04-20T01:55:49.092Z,7.79
2023-04-20T01:59:53.176Z,7.86
2023-04-20T02:04:30.287Z,7.90
2023-04-20T02:08:34.482Z,7.98
2023-04-20T02:13:04.526Z,8.02
2023-04-20T02:17:09.499Z,8.09
2023-04-20T02:21:12.547Z,8.17
2023-04-20T02:25:15.900Z,8.17
2023-04-20T02:29:19.822Z,8.25
2023-04-20T02:33:24.629Z,8.23
2023-04-20T02:37:29.648Z,8.16
2023-04-20T02:41:32.787Z,8.16
2023-04-20T02:45:37.416Z,8.19
2023-04-20T02:49:42.225Z,8.26
2023-04-20T02:53:45.496Z,8.17
2023-04-20T02:57:55.811Z,8.19
2023-04-20T03:02:10.664Z,8.26
2023-04-20T03:06:16.210Z,8.30
2023-04-20T03:10:24.637Z,8.25
2023-04-20T03:14:36.311Z,8.26
2023-04-20T03:18:39.596Z,8.29
2023-04-20T03:22:44.300Z,8.30
2023-04-20T03:26:47.447Z,8.25
2023-04-20T03:30:58.001Z,8.25
2023-04-20T03:35:01.037Z,8.30
2023-04-20T03:39:06.009Z,8.27
2023-04-20T03:43:08.842Z,8.28
2023-04-20T03:47:11.757Z,8.31
2023-04-20T03:51:14.843Z,8.29
2023-04-20T03:55:19.318Z,8.23
2023-04-20T03:59:28.722Z,8.10
2023-04-20T04:03:31.731Z,8.09
2023-04-20T04:07:34.588Z,8.03
2023-04-20T04:11:39.307Z,8.00
2023-04-20T04:15:42.334Z,7.95
2023-04-20T04:19:49.585Z,8.03
2023-04-20T04:23:52.776Z,8.04
2023-04-20T04:28:20.710Z,8.05
2023-04-20T04:32:34.557Z,7.99
2023-04-20T04:36:38.483Z,7.91
2023-04-20T04:40:45.287Z,7.93
2023-04-20T04:44:52.216Z,7.93
2023-04-20T04:49:02.717Z,7.93
2023-04-20T04:53:05.492Z,7.90
2023-04-20T04:57:08.622Z,7.91
2023-04-20T05:01:13.139Z,7.99
2023-04-20T05:05:16.629Z,8.02
2023-04-20T05:09:20.581Z,8.08
2023-04-20T05:13:24.727Z,8.06
2023-04-20T05:17:29.073Z,8.04
2023-04-20T05:21:32.759Z,8.12
2023-04-20T05:25:36.280Z,8.25
2023-04-20T05:29:39.704Z,8.27
2023-04-20T05:33:44.455Z,8.33
2023-04-20T05:37:47.707Z,8.32
2023-04-20T05:41:50.745Z,8.29
2023-04-20T05:45:54.856Z,8.16
2023-04-20T05:50:00.270Z,8.10
2023-04-20T05:54:06.893Z,8.01
2023-04-20T05:58:14.571Z,8.04
2023-04-20T06:02:51.499Z,8.02
2023-04-20T06:06:56.087Z,8.03
2023-04-20T06:10:59.102Z,8.04
2023-04-20T06:15:03.933Z,8.13
2023-04-20T06:19:06.736Z,8.26
2023-04-20T06:23:14.195Z,8.21
2023-04-20T06:27:16.943Z,8.20
2023-04-20T06:31:19.930Z,8.28
2023-04-20T06:35:23.641Z,8.27
2023-04-20T06:39:33.542Z,8.26
2023-04-20T06:43:36.546Z,8.40
2023-04-20T06:47:39.297Z,8.45
2023-04-20T06:51:41.996Z,8.50
2023-04-20T06:55:46.116Z,8.56
2023-04-20T06:59:48.872Z,8.54
2023-04-20T07:03:52.921Z,8.59
2023-04-20T07:07:56.059Z,8.66
2023-04-20T07:12:00.895Z,8.65
2023-04-20T07:16:04.540Z,8.61
2023-04-20T07:20:08.938Z,8.59
2023-04-20T07:24:12.546Z,8.52
2023-04-20T07:28:16.712Z,8.53
2023-04-20T07:32:20.052Z,8.56
2023-04-20T07:36:23.159Z,8.49
2023-04-20T07:40:26.166Z,8.57
2023-04-20T07:44:30.908Z,8.68
2023-04-20T07:48:34.772Z,8.66
2023-04-20T07:52:37.908Z,8.52
2023-04-20T07:56:40.978Z,8.52
2023-04-20T08:00:48.651Z,8.56
2023-04-20T08:04:51.718Z,8.62
2023-04-20T08:08:56.434Z,8.79
2023-04-20T08:12:59.553Z,8.89
2023-04-20T08:17:04.086Z,9.01
2023-04-20T08:21:07.319Z,9.07
2023-04-20T08:25:12.344Z,9.30
2023-04-20T08:29:15.403Z,9.48
2023-04-20T08:33:54.629Z,9.56
2023-04-20T08:37:57.478Z,9.72
2023-04-20T08:42:00.332Z,9.79
2023-04-20T08:46:03.768Z,9.73
2023-04-20T08:50:09.734Z,9.75
2023-04-20T08:54:13.879Z,10.00
2023-04-20T08:58:17.051Z,10.12
2023-04-20T09:02:21.865Z,10.10
2023-04-20T09:06:26.489Z,10.26
2023-04-20T09:10:41.096Z,10.35
2023-04-20T09:14:44.844Z,10.38
2023-04-20T09:18:53.204Z,10.25
2023-04-20T09:22:57.537Z,10.16
2023-04-20T09:27:01.345Z,10.17
2023-04-20T09:31:05.932Z,10.41
2023-04-20T09:35:10.054Z,10.99
2023-04-20T09:39:16.515Z,11.15
2023-04-20T09:43:20.585Z,11.20
2023-04-20T09:47:25.915Z,11.20
2023-04-20T09:51:29.762Z,11.10
2023-04-20T09:55:34.470Z,11.05
2023-04-20T09:59:38.310Z,10.96
2023-04-20T10:03:42.873Z,10.83
2023-04-20T10:07:46.103Z,10.68
2023-04-20T10:11:53.948Z,10.74
2023-04-20T10:15:58.416Z,10.95
2023-04-20T10:20:01.462Z,11.00
2023-04-20T10:24:04.769Z,11.04
2023-04-20T10:28:10.541Z,11.16
2023-04-20T10:32:22.981Z,11.31
2023-04-20T10:36:29.265Z,11.89
2023-04-20T10:40:32.151Z,12.17
2023-04-20T10:44:36.419Z,11.97
2023-04-20T10:48:39.125Z,11.80
2023-04-20T10:52:44.941Z,11.87
2023-04-20T10:56:49.653Z,11.90
2023-04-20T11:01:01.296Z,11.84
2023-04-20T11:05:12.489Z,12.19
2023-04-20T11:09:20.972Z,12.70
2023-04-20T11:13:25.696Z,12.64
2023-04-20T11:17:36.709Z,12.41
2023-04-20T11:21:42.707Z,12.26
2023-04-20T11:25:50.819Z,12.23
2023-04-20T11:29:58.392Z,12.08
2023-04-20T11:34:06.013Z,12.07
2023-04-20T11:38:10.440Z,11.93
2023-04-20T11:42:13.585Z,11.93
2023-04-20T11:46:18.161Z,11.97
2023-04-20T11:50:22.657Z,11.93
2023-04-20T11:54:27.313Z,11.96
2023-04-20T11:58:30.052Z,11.91
2023-04-20T12:02:32.934Z,11.94
2023-04-20T12:06:37.082Z,12.05
2023-04-20T12:10:40.332Z,12.02
2023-04-20T12:14:43.154Z,11.91
2023-04-20T12:18:46.807Z,11.91
2023-04-20T12:22:51.565Z,11.89
2023-04-20T12:26:54.559Z,11.85
2023-04-20T12:30:58.465Z,11.71
2023-04-20T12:35:01.485Z,11.60
2023-04-20T12:39:05.628Z,11.48
2023-04-20T12:43:08.480Z,11.36
2023-04-20T12:47:13.548Z,11.55
2023-04-20T12:51:16.519Z,11.89
2023-04-20T12:55:20.707Z,12.66
2023-04-20T12:59:23.682Z,12.85
2023-04-20T13:03:26.693Z,12.89
2023-04-20T13:07:29.799Z,13.13
2023-04-20T13:11:34.052Z,13.48
2023-04-20T13:15:39.130Z,13.74
2023-04-20T13:19:42.283Z,14.10
2023-04-20T13:23:47.158Z,14.24
2023-04-20T13:27:51.279Z,14.03
2023-04-20T13:31:54.174Z,13.70
2023-04-20T13:35:57.321Z,13.66
2023-04-20T13:40:01.576Z,13.63
2023-04-20T13:44:07.805Z,13.83
2023-04-20T13:48:10.937Z,13.82
2023-04-20T13:52:13.957Z,13.84
2023-04-20T13:56:17.316Z,14.15
2023-04-20T14:01:00.046Z,14.40
2023-04-20T14:05:34.353Z,14.24
2023-04-20T14:09:38.772Z,14.32
2023-04-20T14:13:42.018Z,14.28
2023-04-20T14:17:46.913Z,14.38
2023-04-20T14:22:01.299Z,14.31
2023-04-20T14:26:04.193Z,13.94
2023-04-20T14:30:10.086Z,14.01
2023-04-20T14:34:14.446Z,14.40
2023-04-20T14:38:17.577Z,14.72
2023-04-20T14:42:20.615Z,14.75
2023-04-20T14:46:23.681Z,14.54
2023-04-20T14:50:28.654Z,14.28
2023-04-20T14:54:31.740Z,14.03
2023-04-20T14:58:35.964Z,14.05
2023-04-20T15:02:39.886Z,14.30
2023-04-20T15:06:44.842Z,14.23
2023-04-20T15:10:47.687Z,14.01
2023-04-20T15:14:51.286Z,13.95
2023-04-20T15:18:54.702Z,14.14
2023-04-20T15:22:58.945Z,14.50
2023-04-20T15:27:03.158Z,14.56
2023-04-20T15:31:08.918Z,14.52
2023-04-20T15:35:11.822Z,14.48
2023-04-20T15:39:16.827Z,14.17
2023-04-20T15:43:19.640Z,14.04
2023-04-20T15:47:22.843Z,13.93
2023-04-20T15:51:26.029Z,13.95
2023-04-20T15:55:34.269Z,14.01
2023-04-20T15:59:49.256Z,14.12
2023-04-20T16:03:52.356Z,14.02
2023-04-20T16:07:55.720Z,14.00
2023-04-20T16:12:03.715Z,14.05
2023-04-20T16:16:07.420Z,14.03
2023-04-20T16:20:11.211Z,14.19
2023-04-20T16:24:14.307Z,14.23
2023-04-20T16:28:18.902Z,14.16
2023-04-20T16:32:22.380Z,14.04
2023-04-20T16:36:26.401Z,13.98
2023-04-20T16:40:35.694Z,13.90
2023-04-20T16:44:41.808Z,13.84
2023-04-20T16:48:45.181Z,13.82
2023-04-20T16:52:59.175Z,13.41
2023-04-20T16:57:03.175Z,13.29
2023-04-20T17:01:11.405Z,13.06
2023-04-20T17:05:16.214Z,12.86
2023-04-20T17:09:19.077Z,12.79
2023-04-20T17:13:22.423Z,12.75
2023-04-20T17:17:28.211Z,12.60
2023-04-20T17:21:31.647Z,12.44
2023-04-20T17:25:36.116Z,12.45
2023-04-20T17:29:42.961Z,12.50
2023-04-20T17:33:48.271Z,12.31
2023-04-20T17:37:51.770Z,12.20
2023-04-20T17:41:55.407Z,11.97
2023-04-20T17:45:58.990Z,11.80
2023-04-20T17:50:11.703Z,11.77
2023-04-20T17:54:24.376Z,11.68
2023-04-20T17:58:29.185Z,11.61
2023-04-20T18:02:32.401Z,11.48
2023-04-20T18:06:36.927Z,11.30
2023-04-20T18:10:40.458Z,11.19
2023-04-20T18:14:44.041Z,11.06
2023-04-20T18:18:48.155Z,10.90
2023-04-20T18:22:52.793Z,10.83
2023-04-20T18:27:02.054Z,10.83
2023-04-20T18:31:15.017Z,10.80
2023-04-20T18:35:30.547Z,10.70
2023-04-20T18:39:50.672Z,10.55
2023-04-20T18:43:54.551Z,10.41
2023-04-20T18:48:06.961Z,10.16
2023-04-20T18:52:34.576Z,10.08
2023-04-20T18:56:45.224Z,10.03
2023-04-20T19:00:49.073Z,10.02
2023-04-20T19:04:58.084Z,10.06
2023-04-20T19:09:02.184Z,10.13
2023-04-20T19:13:06.751Z,10.10
2023-04-20T19:17:10.692Z,10.04
2023-04-20T19:21:15.148Z,10.06
2023-04-20T19:25:27.090Z,10.13
2023-04-20T19:29:44.245Z,10.08
2023-04-20T19:33:57.303Z,10.03
2023-04-20T19:38:00.706Z,10.06
2023-04-20T19:42:05.001Z,10.07
2023-04-20T19:46:09.921Z,10.09
2023-04-20T19:50:13.965Z,10.12
2023-04-20T19:54:30.996Z,10.03
2023-04-20T19:58:36.745Z,10.02
2023-04-20T20:02:49.212Z,9.93
2023-04-20T20:06:59.076Z,9.88
2023-04-20T20:11:08.622Z,9.78
2023-04-20T20:15:26.952Z,9.76
2023-04-20T20:19:47.755Z,9.74
2023-04-20T20:23:58.867Z,9.77
2023-04-20T20:28:03.696Z,9.73
2023-04-20T20:32:07.081Z,9.74
2023-04-20T20:36:12.395Z,9.71
2023-04-20T20:40:15.567Z,9.78
2023-04-20T20:44:20.688Z,9.74
2023-04-20T20:48:23.908Z,9.69
2023-04-20T20:52:28.337Z,9.68
2023-04-20T20:56:31.361Z,9.68
2023-04-20T21:00:35.616Z,9.69
2023-04-20T21:04:48.923Z,9.65
2023-04-20T21:09:18.215Z,9.66
2023-04-20T21:13:48.044Z,9.69
2023-04-20T21:18:13.810Z,9.70
2023-04-20T21:22:35.921Z,9.70
2023-04-20T21:26:38.768Z,9.75
2023-04-20T21:30:41.749Z,9.77
2023-04-20T21:34:46.234Z,9.77
2023-04-20T21:38:55.247Z,9.76
2023-04-20T21:42:58.027Z,9.75
2023-04-20T21:47:02.359Z,9.74
2023-04-20T21:51:06.666Z,9.82
2023-04-20T21:55:10.314Z,9.81
2023-04-20T21:59:14.305Z,9.76
2023-04-20T22:03:17.135Z,9.76
2023-04-20T22:07:38.564Z,9.83
2023-04-20T22:11:41.323Z,9.78
2023-04-20T22:15:47.265Z,9.78
2023-04-20T22:20:16.069Z,9.75
2023-04-20T22:24:20.196Z,9.72
2023-04-20T22:28:22.945Z,9.74
2023-04-20T22:32:26.046Z,9.78
2023-04-20T22:36:29.057Z,9.80
2023-04-20T22:40:34.594Z,9.86
2023-04-20T22:44:37.357Z,9.84
2023-04-20T22:48:40.736Z,9.82
2023-04-20T22:52:43.837Z,9.84
2023-04-20T22:56:48.007Z,9.82
2023-04-20T23:01:02.784Z,9.79
2023-04-20T23:05:06.877Z,9.82
2023-04-20T23:09:10.025Z,9.78
2023-04-20T23:13:47.782Z,9.76
2023-04-20T23:17:50.804Z,9.78
2023-04-20T23:22:21.615Z,9.77
2023-04-20T23:26:24.591Z,9.75
2023-04-20T23:30:29.295Z,9.80
2023-04-20T23:34:32.943Z,9.81
2023-04-20T23:38:35.983Z,9.84
2023-04-20T23:42:38.872Z,9.80
2023-04-20T23:46:44.262Z,9.84
2023-04-20T23:50:49.641Z,9.88
2023-04-20T23:54:59.064Z,9.88
2023-04-20T23:59:02.277Z,9.88
